Time;durP1;ratioP1;P1;durP2;ratioP2;P2;SDS_P1;SDS_P2;PMS_P1;PMS_P2;Temp;Humidity;BMP_temperature;BMP_pressure;BME280_temperature;BME280_humidity;BME280_pressure;Samples;Min_cycle;Max_cycle;Signal;HPM_P1;HPM_P2
2022/10/25 00:01:46;;;;;;;;;;;;;;;-144.47;100.00;61586.06;4973751;28;19925;-82
2022/10/25 00:04:11;;;;;;;;;;;;;;;-144.47;100.00;61586.06;4973287;28;19925;-81
2022/10/25 00:06:37;;;;;;;;;;;;;;;-144.47;100.00;61586.06;4973070;28;19918;-81
2022/10/25 00:09:02;;;;;;;;;;;;;;;-144.47;100.00;61586.06;4973672;28;19922;-82
2022/10/25 00:11:28;;;;;;;;;;;;;;;-144.47;100.00;61586.06;4973136;28;19939;-82
2022/10/25 00:13:55;;;;;;;;;;;;;;;-144.47;100.00;61586.06;4973276;28;19929;-82
2022/10/25 00:16:22;;;;;;;;;;;;;;;-144.47;100.00;61586.06;4972937;28;19925;-82
2022/10/25 00:18:48;;;;;;;;;;;;;;;-144.47;100.00;61586.06;4973307;28;20028;-81
2022/10/25 00:21:13;;;;;;;;;;;;;;;-144.47;100.00;61586.06;4963538;28;19926;-81
2022/10/25 00:23:38;;;;;;;;;;;;;;;-144.47;100.00;61586.06;4972870;28;19922;-82
2022/10/25 00:26:05;;;;;;;;;;;;;;;-144.47;100.00;61586.06;4973014;28;20544;-81
2022/10/25 00:28:30;;;;;;;;;;;;;;;-144.47;100.00;61586.06;4973159;28;20387;-81
2022/10/25 00:31:00;;;;;;;;;;;;;;;-144.47;100.00;61586.06;4964484;28;19918;-81
2022/10/25 00:33:27;;;;;;;;;;;;;;;-144.47;100.00;61586.06;4972607;28;19972;-81
2022/10/25 00:35:52;;;;;;;;;;;;;;;-144.47;100.00;61586.06;4973174;28;19918;-81
2022/10/25 00:38:18;;;;;;;;;;;;;;;-144.47;100.00;61586.06;4972217;28;19914;-81
2022/10/25 00:40:43;;;;;;;;;;;;;;;-144.47;100.00;61586.06;4972486;28;20366;-81
2022/10/25 00:43:09;;;;;;;;;;;;;;;-144.47;100.00;61586.06;4972917;28;19914;-82
2022/10/25 00:45:34;;;;;;;;;;;;;;;-144.47;100.00;61586.06;4972860;28;19941;-82
2022/10/25 00:48:02;;;;;;;;;;;;;;;-144.47;100.00;61586.06;4973099;28;19918;-82
2022/10/25 00:50:33;;;;;;;;;;;;;;;-144.47;100.00;61586.06;4972974;28;19960;-82
2022/10/25 00:53:04;;;;;;;;;;;;;;;-144.47;100.00;61586.06;4973133;28;19918;-82
2022/10/25 00:55:29;;;;;;;;;;;;;;;-144.47;100.00;61586.06;4968557;28;19918;-83
2022/10/25 00:57:55;;;;;;;;;;;;;;;-144.47;100.00;61586.06;4964944;28;19918;-81
2022/10/25 01:00:20;;;;;;;;;;;;;;;-144.47;100.00;61586.06;4976176;28;19918;-82
2022/10/25 01:02:46;;;;;;;;;;;;;;;-144.47;100.00;61586.06;4976930;28;20208;-80
2022/10/25 01:05:11;;;;;;;;;;;;;;;-144.47;100.00;61586.06;4976907;28;19977;-80
2022/10/25 01:07:37;;;;;;;;;;;;;;;-144.47;100.00;61586.06;4977981;28;19973;-79
2022/10/25 01:10:03;;;;;;;;;;;;;;;-144.47;100.00;61586.06;4968271;28;20000;-80
2022/10/25 01:12:28;;;;;;;;;;;;;;;-144.47;100.00;61586.06;4976632;28;19944;-81
2022/10/25 01:14:54;;;;;;;;;;;;;;;-144.47;100.00;61586.06;4976536;28;19981;-82
2022/10/25 01:17:35;;;;;;;;;;;;;;;-144.47;100.00;61586.06;4976127;28;20020;-82
2022/10/25 01:20:03;;;;;;;;;;;;;;;-144.47;100.00;61586.06;4972621;28;20351;-81
2022/10/25 01:22:37;;;;;;;;;;;;;;;-144.47;100.00;61586.06;4975842;28;20313;-82
2022/10/25 01:25:19;;;;;;;;;;;;;;;-144.47;100.00;61586.06;4972063;28;19972;-81
2022/10/25 01:28:03;;;;;;;;;;;;;;;-144.47;100.00;61586.06;4974000;28;19917;-82
2022/10/25 01:30:52;;;;;;;;;;;;;;;-144.47;100.00;61586.06;4975603;28;19990;-80
2022/10/25 01:33:36;;;;;;;;;;;;;;;-144.47;100.00;61586.06;4974118;28;20012;-81
2022/10/25 01:36:18;;;;;;;;;;;;;;;-144.47;100.00;61586.06;4972261;28;19988;-82
2022/10/25 01:38:49;;;;;;;;;;;;;;;-144.47;100.00;61586.06;4973974;28;19977;-83
2022/10/25 01:41:23;;;;;;;;;;;;;;;-144.47;100.00;61586.06;4974868;28;19940;-83
2022/10/25 01:44:00;;;;;;;;;;;;;;;-144.47;100.00;61586.06;4975765;28;19949;-82
2022/10/25 01:46:39;;;;;;;;;;;;;;;-144.47;100.00;61586.06;4975345;28;20037;-84
2022/10/25 01:49:07;;;;;;;;;;;;;;;-144.47;100.00;61586.06;4972598;28;19918;-83
2022/10/25 01:51:36;;;;;;;;;;;;;;;-144.47;100.00;61586.06;4975669;28;19922;-82
2022/10/25 01:54:02;;;;;;;;;;;;;;;-144.47;100.00;61586.06;4972099;28;20005;-82
2022/10/25 01:56:40;;;;;;;;;;;;;;;-144.47;100.00;61586.06;4974432;28;20034;-81
2022/10/25 01:59:15;;;;;;;;;;;;;;;-144.47;100.00;61586.06;4972275;28;19918;-83
2022/10/25 02:01:40;;;;;;;;;;;;;;;-144.47;100.00;61586.06;4975708;28;19967;-83
2022/10/25 02:04:10;;;;;;;;;;;;;;;-144.47;100.00;61586.06;4975367;28;19921;-81
2022/10/25 02:06:38;;;;;;;;;;;;;;;-144.47;100.00;61586.06;4975741;28;19918;-82
2022/10/25 02:09:19;;;;;;;;;;;;;;;-144.47;100.00;61586.06;4975635;28;20346;-82
2022/10/25 02:11:45;;;;;;;;;;;;;;;-144.47;100.00;61586.06;4972001;28;19968;-82
2022/10/25 02:14:34;;;;;;;;;;;;;;;-144.47;100.00;61586.06;4974962;28;19949;-83
2022/10/25 02:16:59;;;;;;;;;;;;;;;-144.47;100.00;61586.06;4971331;28;19926;-81
2022/10/25 02:19:28;;;;;;;;;;;;;;;-144.47;100.00;61586.06;4965668;28;20354;-82
2022/10/25 02:21:53;;;;;;;;;;;;;;;-144.47;100.00;61586.06;4975061;28;19926;-82
2022/10/25 02:24:22;;;;;;;;;;;;;;;-144.47;100.00;61586.06;4974762;28;19966;-82
2022/10/25 02:26:49;;;;;;;;;;;;;;;-144.47;100.00;61586.06;4974419;28;19941;-82
2022/10/25 02:29:15;;;;;;;;;;;;;;;-144.47;100.00;61586.06;4974479;28;19918;-82
2022/10/25 02:31:41;;;;;;;;;;;;;;;-144.47;100.00;61586.06;4965454;28;19968;-82
2022/10/25 02:34:06;;;;;;;;;;;;;;;-144.47;100.00;61586.06;4974714;28;19921;-82
2022/10/25 02:36:32;;;;;;;;;;;;;;;-144.47;100.00;61586.06;4974728;28;19961;-82
2022/10/25 02:38:58;;;;;;;;;;;;;;;-144.47;100.00;61586.06;4974891;28;20366;-81
2022/10/25 02:41:24;;;;;;;;;;;;;;;-144.47;100.00;61586.06;4974256;28;19925;-81
2022/10/25 02:43:49;;;;;;;;;;;;;;;-144.47;100.00;61586.06;4975139;28;20351;-83
2022/10/25 02:46:16;;;;;;;;;;;;;;;-144.47;100.00;61586.06;4974752;28;19917;-82
2022/10/25 02:48:44;;;;;;;;;;;;;;;-144.47;100.00;61586.06;4975590;28;19949;-83
2022/10/25 02:51:10;;;;;;;;;;;;;;;-144.47;100.00;61586.06;4975976;28;19973;-80
2022/10/25 02:53:36;;;;;;;;;;;;;;;-144.47;100.00;61586.06;4975651;28;19918;-81
2022/10/25 02:56:06;;;;;;;;;;;;;;;-144.47;100.00;61586.06;4975890;28;19918;-81
2022/10/25 02:58:33;;;;;;;;;;;;;;;-144.47;100.00;61586.06;4971708;28;19925;-82
2022/10/25 03:00:58;;;;;;;;;;;;;;;-144.47;100.00;61586.06;4975191;28;19924;-83
2022/10/25 03:03:24;;;;;;;;;;;;;;;-144.47;100.00;61586.06;4974515;28;20453;-81
2022/10/25 03:05:49;;;;;;;;;;;;;;;-144.47;100.00;61586.06;4975010;28;19918;-83
2022/10/25 03:08:15;;;;;;;;;;;;;;;-144.47;100.00;61586.06;4974744;28;19925;-82
2022/10/25 03:10:40;;;;;;;;;;;;;;;-144.47;100.00;61586.06;4974947;28;19918;-82
2022/10/25 03:13:05;;;;;;;;;;;;;;;-144.47;100.00;61586.06;4986001;23;20008;-78
2022/10/25 03:15:31;;;;;;;;;;;;;;;-144.47;100.00;61586.06;4954085;29;20295;-79
2022/10/25 03:17:56;;;;;;;;;;;;;;;-144.47;100.00;61586.06;4954134;29;19931;-79
2022/10/25 03:20:21;;;;;;;;;;;;;;;-144.47;100.00;61586.06;4953813;29;20016;-79
2022/10/25 03:22:47;;;;;;;;;;;;;;;-144.47;100.00;61586.06;4961138;28;19965;-80
2022/10/25 03:25:12;;;;;;;;;;;;;;;-144.47;100.00;61586.06;4954153;28;20386;-80
2022/10/25 03:27:37;;;;;;;;;;;;;;;-144.47;100.00;61586.06;4961440;28;19918;-80
2022/10/25 03:30:03;;;;;;;;;;;;;;;-144.47;100.00;61586.06;4953889;29;19957;-80
2022/10/25 03:32:28;;;;;;;;;;;;;;;-144.47;100.00;61586.06;4960607;28;19968;-77
2022/10/25 03:34:53;;;;;;;;;;;;;;;-144.47;100.00;61586.06;4954160;29;20017;-80
2022/10/25 03:37:19;;;;;;;;;;;;;;;-144.47;100.00;61586.06;4953878;29;19914;-79
2022/10/25 03:39:44;;;;;;;;;;;;;;;-144.47;100.00;61586.06;4954244;29;20359;-79
2022/10/25 03:42:09;;;;;;;;;;;;;;;-144.47;100.00;61586.06;4954033;29;19961;-80
2022/10/25 03:44:35;;;;;;;;;;;;;;;-144.47;100.00;61586.06;4953609;29;19957;-79
2022/10/25 03:47:00;;;;;;;;;;;;;;;-144.47;100.00;61586.06;4953863;28;20426;-79
2022/10/25 03:49:25;;;;;;;;;;;;;;;-144.47;100.00;61586.06;4953747;29;19919;-79
2022/10/25 03:51:51;;;;;;;;;;;;;;;-144.47;100.00;61586.06;4953920;29;19973;-80
2022/10/25 03:54:16;;;;;;;;;;;;;;;-144.47;100.00;61586.06;4953771;28;20377;-80
2022/10/25 03:56:41;;;;;;;;;;;;;;;-144.47;100.00;61586.06;4954097;29;20362;-80
2022/10/25 03:59:07;;;;;;;;;;;;;;;-144.47;100.00;61586.06;4944396;29;19922;-79
2022/10/25 04:01:32;;;;;;;;;;;;;;;-144.47;100.00;61586.06;4953931;29;20040;-79
2022/10/25 04:03:57;;;;;;;;;;;;;;;-144.47;100.00;61586.06;4954475;29;20434;-79
2022/10/25 04:06:23;;;;;;;;;;;;;;;-144.47;100.00;61586.06;4953782;29;19918;-79
2022/10/25 04:08:48;;;;;;;;;;;;;;;-144.47;100.00;61586.06;4954129;29;20002;-80
2022/10/25 04:11:14;;;;;;;;;;;;;;;-144.47;100.00;61586.06;4953772;29;19987;-79
2022/10/25 04:13:39;;;;;;;;;;;;;;;-144.47;100.00;61586.06;4942354;29;19924;-79
2022/10/25 04:16:06;;;;;;;;;;;;;;;-144.47;100.00;61586.06;4954003;29;19964;-79
2022/10/25 04:18:31;;;;;;;;;;;;;;;-144.47;100.00;61586.06;4953605;29;19922;-80
2022/10/25 04:20:58;;;;;;;;;;;;;;;-144.47;100.00;61586.06;4953978;29;19922;-80
2022/10/25 04:23:23;;;;;;;;;;;;;;;-144.47;100.00;61586.06;4953086;29;19922;-80
2022/10/25 04:25:48;;;;;;;;;;;;;;;-144.47;100.00;61586.06;4953827;29;19925;-80
2022/10/25 04:28:14;;;;;;;;;;;;;;;-144.47;100.00;61586.06;4953003;29;19918;-80
2022/10/25 04:30:40;;;;;;;;;;;;;;;-144.47;100.00;61586.06;4944537;29;19918;-79
2022/10/25 04:33:06;;;;;;;;;;;;;;;-144.47;100.00;61586.06;4953174;28;19997;-78
2022/10/25 04:35:31;;;;;;;;;;;;;;;-144.47;100.00;61586.06;4956096;28;19953;-78
2022/10/25 04:37:57;;;;;;;;;;;;;;;-144.47;100.00;61586.06;4957673;29;20298;-79
2022/10/25 04:40:22;;;;;;;;;;;;;;;-144.47;100.00;61586.06;4957300;28;20294;-80
2022/10/25 04:42:47;;;;;;;;;;;;;;;-144.47;100.00;61586.06;4957645;29;19918;-80
2022/10/25 04:45:13;;;;;;;;;;;;;;;-144.47;100.00;61586.06;4946156;29;19925;-79
2022/10/25 04:47:38;;;;;;;;;;;;;;;-144.47;100.00;61586.06;4957013;29;19958;-80
2022/10/25 04:50:04;;;;;;;;;;;;;;;-144.47;100.00;61586.06;4957140;29;19950;-79
2022/10/25 04:52:30;;;;;;;;;;;;;;;-144.47;100.00;61586.06;4953179;29;19925;-78
2022/10/25 04:54:57;;;;;;;;;;;;;;;-144.47;100.00;61586.06;4948043;29;19925;-79
2022/10/25 04:57:22;;;;;;;;;;;;;;;-144.47;100.00;61586.06;4956927;29;19918;-80
2022/10/25 04:59:47;;;;;;;;;;;;;;;-144.47;100.00;61586.06;4957094;28;19918;-80
2022/10/25 05:02:13;;;;;;;;;;;;;;;-144.47;100.00;61586.06;4955855;28;19918;-79
2022/10/25 05:04:38;;;;;;;;;;;;;;;-144.47;100.00;61586.06;4956890;28;19937;-80
2022/10/25 05:07:04;;;;;;;;;;;;;;;-144.47;100.00;61586.06;4957202;29;19926;-79
2022/10/25 05:09:29;;;;;;;;;;;;;;;-144.47;100.00;61586.06;4947489;28;19925;-80
2022/10/25 05:11:54;;;;;;;;;;;;;;;-144.47;100.00;61586.06;4957075;28;19926;-79
2022/10/25 05:14:20;;;;;;;;;;;;;;;-144.47;100.00;61586.06;4956262;29;20012;-79
2022/10/25 05:16:45;;;;;;;;;;;;;;;-144.47;100.00;61586.06;4956946;29;20282;-79
2022/10/25 05:19:10;;;;;;;;;;;;;;;-144.47;100.00;61586.06;4956506;29;19918;-79
2022/10/25 05:21:36;;;;;;;;;;;;;;;-144.47;100.00;61586.06;4957054;29;19922;-80
2022/10/25 05:24:01;;;;;;;;;;;;;;;-144.47;100.00;61586.06;4954068;28;20463;-78
2022/10/25 05:26:27;;;;;;;;;;;;;;;-144.47;100.00;61586.06;4948329;29;19973;-79
2022/10/25 05:28:53;;;;;;;;;;;;;;;-144.47;100.00;61586.06;4956623;29;19922;-78
2022/10/25 05:31:20;;;;;;;;;;;;;;;-144.47;100.00;61586.06;4956614;28;20370;-81
2022/10/25 05:33:47;;;;;;;;;;;;;;;-144.47;100.00;61586.06;4956873;29;20334;-78
2022/10/25 05:36:14;;;;;;;;;;;;;;;-144.47;100.00;61586.06;4956052;29;19918;-76
2022/10/25 05:38:39;;;;;;;;;;;;;;;-144.47;100.00;61586.06;4952300;28;19918;-78
2022/10/25 05:41:05;;;;;;;;;;;;;;;-144.47;100.00;61586.06;4956351;29;20409;-77
2022/10/25 05:43:30;;;;;;;;;;;;;;;-144.47;100.00;61586.06;4949406;29;19925;-78
2022/10/25 05:46:07;;;;;;;;;;;;;;;-144.47;100.00;61586.06;4947818;28;19985;-77
2022/10/25 05:48:33;;;;;;;;;;;;;;;-144.47;100.00;61586.06;4953031;29;19918;-77
2022/10/25 05:51:17;;;;;;;;;;;;;;;-144.47;100.00;61586.06;4953649;29;19918;-75
2022/10/25 05:53:44;;;;;;;;;;;;;;;-144.47;100.00;61586.06;4950592;29;19925;-77
2022/10/25 05:56:09;;;;;;;;;;;;;;;-144.47;100.00;61586.06;4951020;28;19994;-76
2022/10/25 05:58:34;;;;;;;;;;;;;;;-144.47;100.00;61586.06;4952423;29;20395;-76
2022/10/25 06:01:00;;;;;;;;;;;;;;;-144.47;100.00;61586.06;4947075;29;20278;-77
2022/10/25 06:03:25;;;;;;;;;;;;;;;-144.47;100.00;61586.06;4955262;29;20328;-76
2022/10/25 06:05:51;;;;;;;;;;;;;;;-144.47;100.00;61586.06;4956180;29;19918;-76
2022/10/25 06:08:16;;;;;;;;;;;;;;;-144.47;100.00;61586.06;4954541;28;19929;-76
2022/10/25 06:10:41;;;;;;;;;;;;;;;-144.47;100.00;61586.06;4956010;29;19922;-76
2022/10/25 06:13:06;;;;;;;;;;;;;;;-144.47;100.00;61586.06;4946835;29;19927;-77
2022/10/25 06:15:32;;;;;;;;;;;;;;;-144.47;100.00;61586.06;4954778;28;19918;-77
2022/10/25 06:17:57;;;;;;;;;;;;;;;-144.47;100.00;61586.06;4955801;29;20342;-78
2022/10/25 06:20:22;;;;;;;;;;;;;;;-144.47;100.00;61586.06;4954724;28;19919;-74
2022/10/25 06:22:48;;;;;;;;;;;;;;;-144.47;100.00;61586.06;4955027;29;19925;-76
2022/10/25 06:25:13;;;;;;;;;;;;;;;-144.47;100.00;61586.06;4955101;29;19918;-75
2022/10/25 06:27:38;;;;;;;;;;;;;;;-144.47;100.00;61586.06;4955583;29;19918;-76
2022/10/25 06:30:04;;;;;;;;;;;;;;;-144.47;100.00;61586.06;4955511;29;19924;-77
2022/10/25 06:32:29;;;;;;;;;;;;;;;-144.47;100.00;61586.06;4954991;29;19919;-76
2022/10/25 06:34:55;;;;;;;;;;;;;;;-144.47;100.00;61586.06;4955305;29;19990;-77
2022/10/25 06:37:20;;;;;;;;;;;;;;;-144.47;100.00;61586.06;4954635;29;20294;-76
2022/10/25 06:39:45;;;;;;;;;;;;;;;-144.47;100.00;61586.06;4961909;28;20390;-76
2022/10/25 06:42:10;;;;;;;;;;;;;;;-144.47;100.00;61586.06;4954960;29;19918;-77
2022/10/25 06:44:37;;;;;;;;;;;;;;;-144.47;100.00;61586.06;4961776;28;19929;-76
2022/10/25 06:47:02;;;;;;;;;;;;;;;-144.47;100.00;61586.06;4955248;29;19918;-77
2022/10/25 06:49:28;;;;;;;;;;;;;;;-144.47;100.00;61586.06;4954370;29;19919;-77
2022/10/25 06:51:53;;;;;;;;;;;;;;;-144.47;100.00;61586.06;4953842;29;19989;-77
2022/10/25 06:54:19;;;;;;;;;;;;;;;-144.47;100.00;61586.06;4953936;29;19918;-76
2022/10/25 06:56:44;;;;;;;;;;;;;;;-144.47;100.00;61586.06;4954300;28;20333;-77
2022/10/25 06:59:10;;;;;;;;;;;;;;;-144.47;100.00;61586.06;4954181;29;19918;-77
2022/10/25 07:01:35;;;;;;;;;;;;;;;-144.47;100.00;61586.06;4954214;29;19926;-76
2022/10/25 07:04:01;;;;;;;;;;;;;;;-144.47;100.00;61586.06;4954794;29;19922;-77
2022/10/25 07:06:28;;;;;;;;;;;;;;;-144.47;100.00;61586.06;4953625;29;20432;-75
2022/10/25 07:08:55;;;;;;;;;;;;;;;-144.47;100.00;61586.06;4954184;28;19925;-77
2022/10/25 07:11:20;;;;;;;;;;;;;;;-144.47;100.00;61586.06;4952849;29;20306;-76
2022/10/25 07:13:46;;;;;;;;;;;;;;;-144.47;100.00;61586.06;4952867;29;19923;-75
2022/10/25 07:16:12;;;;;;;;;;;;;;;-144.47;100.00;61586.06;4952610;28;19918;-76
2022/10/25 07:18:38;;;;;;;;;;;;;;;-144.47;100.00;61586.06;4936908;29;19957;-78
2022/10/25 07:21:05;;;;;;;;;;;;;;;-144.47;100.00;61586.06;4953741;28;20005;-76
2022/10/25 07:23:31;;;;;;;;;;;;;;;-144.47;100.00;61586.06;4956414;28;19918;-75
2022/10/25 07:25:56;;;;;;;;;;;;;;;-144.47;100.00;61586.06;4954403;29;19915;-77
2022/10/25 07:28:22;;;;;;;;;;;;;;;-144.47;100.00;61586.06;4952962;28;19918;-76
2022/10/25 07:30:48;;;;;;;;;;;;;;;-144.47;100.00;61586.06;4954516;29;20290;-76
2022/10/25 07:33:14;;;;;;;;;;;;;;;-144.47;100.00;61586.06;4953258;28;19930;-76
2022/10/25 07:35:43;;;;;;;;;;;;;;;-144.47;100.00;61586.06;4961340;28;19918;-75
2022/10/25 07:38:08;;;;;;;;;;;;;;;-144.47;100.00;61586.06;4954030;29;19922;-77
2022/10/25 07:40:33;;;;;;;;;;;;;;;-144.47;100.00;61586.06;4953430;28;19974;-77
2022/10/25 07:42:59;;;;;;;;;;;;;;;-144.47;100.00;61586.06;4941267;29;19941;-77
2022/10/25 07:45:24;;;;;;;;;;;;;;;-144.47;100.00;61586.06;4951300;29;19927;-77
2022/10/25 07:47:50;;;;;;;;;;;;;;;-144.47;100.00;61586.06;4949301;29;20017;-77
2022/10/25 07:50:16;;;;;;;;;;;;;;;-144.47;100.00;61586.06;4952668;29;20450;-77
2022/10/25 07:52:41;;;;;;;;;;;;;;;-144.47;100.00;61586.06;4952821;29;19974;-76
2022/10/25 07:55:06;;;;;;;;;;;;;;;-144.47;100.00;61586.06;4952604;29;19928;-76
2022/10/25 07:57:32;;;;;;;;;;;;;;;-144.47;100.00;61586.06;4952341;29;19914;-77
2022/10/25 07:59:57;;;;;;;;;;;;;;;-144.47;100.00;61586.06;4952947;29;19918;-77
2022/10/25 08:02:22;;;;;;;;;;;;;;;-144.47;100.00;61586.06;4952415;29;20290;-77
2022/10/25 08:04:48;;;;;;;;;;;;;;;-144.47;100.00;61586.06;4952353;29;19918;-77
2022/10/25 08:07:13;;;;;;;;;;;;;;;-144.47;100.00;61586.06;4952659;29;20246;-77
2022/10/25 08:09:38;;;;;;;;;;;;;;;-144.47;100.00;61586.06;4952521;28;19922;-77
2022/10/25 08:12:04;;;;;;;;;;;;;;;-144.47;100.00;61586.06;4952378;29;19961;-77
2022/10/25 08:14:29;;;;;;;;;;;;;;;-144.47;100.00;61586.06;4952520;29;19922;-77
2022/10/25 08:16:54;;;;;;;;;;;;;;;-144.47;100.00;61586.06;4952660;29;19949;-77
2022/10/25 08:19:20;;;;;;;;;;;;;;;-144.47;100.00;61586.06;4952833;29;19918;-78
2022/10/25 08:21:45;;;;;;;;;;;;;;;-144.47;100.00;61586.06;4952826;29;19918;-75
2022/10/25 08:24:10;;;;;;;;;;;;;;;-144.47;100.00;61586.06;4952443;29;19918;-77
2022/10/25 08:26:36;;;;;;;;;;;;;;;-144.47;100.00;61586.06;4935522;28;19918;-78
2022/10/25 08:29:01;;;;;;;;;;;;;;;-144.47;100.00;61586.06;4934141;29;19918;-77
2022/10/25 08:31:26;;;;;;;;;;;;;;;-144.47;100.00;61586.06;4952188;29;19949;-78
2022/10/25 08:33:52;;;;;;;;;;;;;;;-144.47;100.00;61586.06;4952376;29;19926;-78
2022/10/25 08:36:17;;;;;;;;;;;;;;;-144.47;100.00;61586.06;4952107;29;19990;-78
2022/10/25 08:38:42;;;;;;;;;;;;;;;-144.47;100.00;61586.06;4952425;29;20313;-76
2022/10/25 08:41:08;;;;;;;;;;;;;;;-144.47;100.00;61586.06;4952275;29;20374;-78
2022/10/25 08:43:52;;;;;;;;;;;;;;;-144.47;100.00;61586.06;4952547;29;19985;-78
2022/10/25 08:46:20;;;;;;;;;;;;;;;-144.47;100.00;61586.06;4951239;29;19977;-78
2022/10/25 08:48:50;;;;;;;;;;;;;;;-144.47;100.00;61586.06;4953275;29;20005;-78
2022/10/25 08:51:21;;;;;;;;;;;;;;;-144.47;100.00;61586.06;4951604;29;19924;-77
2022/10/25 08:53:48;;;;;;;;;;;;;;;-144.47;100.00;61586.06;4952114;29;19973;-76
2022/10/25 08:56:16;;;;;;;;;;;;;;;-144.47;100.00;61586.06;4952250;29;19957;-77
2022/10/25 08:58:48;;;;;;;;;;;;;;;-144.47;100.00;61586.06;4951853;29;19990;-77
2022/10/25 09:01:18;;;;;;;;;;;;;;;-144.47;100.00;61586.06;4951424;28;19922;-78
2022/10/25 09:03:43;;;;;;;;;;;;;;;-144.47;100.00;61586.06;4952330;28;19915;-76
2022/10/25 09:06:08;;;;;;;;;;;;;;;-144.47;100.00;61586.06;4951448;28;19919;-76
2022/10/25 09:08:34;;;;;;;;;;;;;;;-144.47;100.00;61586.06;4951545;28;20001;-76
2022/10/25 09:11:11;;;;;;;;;;;;;;;-144.47;100.00;61586.06;4951904;29;19946;-79
2022/10/25 09:13:39;;;;;;;;;;;;;;;-144.47;100.00;61586.06;4949892;29;19918;-77
2022/10/25 09:16:20;;;;;;;;;;;;;;;-144.47;100.00;61586.06;4951269;29;19918;-75
2022/10/25 09:18:50;;;;;;;;;;;;;;;-144.47;100.00;61586.06;4951211;28;19981;-76
2022/10/25 09:21:17;;;;;;;;;;;;;;;-144.47;100.00;61586.06;4953496;28;19918;-77
2022/10/25 09:23:47;;;;;;;;;;;;;;;-144.47;100.00;61586.06;4955334;29;20355;-76
2022/10/25 09:26:24;;;;;;;;;;;;;;;-144.47;100.00;61586.06;4952821;29;19929;-76
2022/10/25 09:28:51;;;;;;;;;;;;;;;-144.47;100.00;61586.06;4953654;29;20445;-77
2022/10/25 09:31:22;;;;;;;;;;;;;;;-144.47;100.00;61586.06;4954294;29;20305;-78
2022/10/25 09:33:49;;;;;;;;;;;;;;;-144.47;100.00;61586.06;4955144;29;19923;-77
2022/10/25 09:36:14;;;;;;;;;;;;;;;-144.47;100.00;61586.06;4954615;28;19973;-77
2022/10/25 09:38:39;;;;;;;;;;;;;;;-144.47;100.00;61586.06;4955050;29;19919;-76
2022/10/25 09:41:10;;;;;;;;;;;;;;;-144.47;100.00;61586.06;4955074;29;19960;-77
2022/10/25 09:43:42;;;;;;;;;;;;;;;-144.47;100.00;61586.06;4955057;28;19918;-76
2022/10/25 09:46:14;;;;;;;;;;;;;;;-144.47;100.00;61586.06;4954433;29;20025;-77
2022/10/25 09:48:51;;;;;;;;;;;;;;;-144.47;100.00;61586.06;4954731;29;19918;-77
2022/10/25 09:51:23;;;;;;;;;;;;;;;-144.47;100.00;61586.06;4951604;29;19918;-78
2022/10/25 09:53:48;;;;;;;;;;;;;;;-144.47;100.00;61586.06;4954478;29;19918;-78
2022/10/25 09:56:16;;;;;;;;;;;;;;;-144.47;100.00;61586.06;4954204;29;20069;-77
2022/10/25 09:58:45;;;;;;;;;;;;;;;-144.47;100.00;61586.06;4954481;29;19980;-77
2022/10/25 10:01:24;;;;;;;;;;;;;;;-144.47;100.00;61586.06;4951758;29;20061;-77
2022/10/25 10:03:49;;;;;;;;;;;;;;;-144.47;100.00;61586.06;4954400;29;19918;-78
2022/10/25 10:06:19;;;;;;;;;;;;;;;-144.47;100.00;61586.06;4954028;29;20351;-79
2022/10/25 10:08:48;;;;;;;;;;;;;;;-144.47;100.00;61586.06;4954332;28;19918;-79
2022/10/25 10:11:16;;;;;;;;;;;;;;;-144.47;100.00;61586.06;4952286;29;20399;-79
2022/10/25 10:14:06;;;;;;;;;;;;;;;-144.47;100.00;61586.06;4954183;29;19929;-77
2022/10/25 10:16:35;;;;;;;;;;;;;;;-144.47;100.00;61586.06;4952842;28;20112;-78
2022/10/25 10:19:12;;;;;;;;;;;;;;;-144.47;100.00;61586.06;4925564;29;20374;-78
2022/10/25 10:21:46;;;;;;;;;;;;;;;-144.47;100.00;61586.06;4953859;29;20394;-79
2022/10/25 10:24:20;;;;;;;;;;;;;;;-144.47;100.00;61586.06;4952677;29;19918;-78
2022/10/25 10:26:53;;;;;;;;;;;;;;;-144.47;100.00;61586.06;4955100;29;20002;-79
2022/10/25 10:29:22;;;;;;;;;;;;;;;-144.47;100.00;61586.06;4954435;29;20271;-80
2022/10/25 10:31:50;;;;;;;;;;;;;;;-144.47;100.00;61586.06;4952355;28;19922;-77
2022/10/25 10:34:25;;;;;;;;;;;;;;;-144.47;100.00;61586.06;4952389;28;19926;-76
2022/10/25 10:37:09;;;;;;;;;;;;;;;-144.47;100.00;61586.06;4935894;29;20038;-76
2022/10/25 10:39:46;;;;;;;;;;;;;;;-144.47;100.00;61586.06;4951160;29;19926;-76
2022/10/25 10:42:15;;;;;;;;;;;;;;;-144.47;100.00;61586.06;4953875;29;19918;-77
2022/10/25 10:44:58;;;;;;;;;;;;;;;-144.47;100.00;61586.06;4954027;29;19945;-76
2022/10/25 10:47:24;;;;;;;;;;;;;;;-144.47;100.00;61586.06;4953332;29;20017;-76
2022/10/25 10:49:49;;;;;;;;;;;;;;;-144.47;100.00;61586.06;4954043;28;20370;-77
2022/10/25 10:52:29;;;;;;;;;;;;;;;-144.47;100.00;61586.06;4953492;29;19922;-77
2022/10/25 10:54:55;;;;;;;;;;;;;;;-144.47;100.00;61586.06;4951473;29;19926;-79
2022/10/25 10:57:39;;;;;;;;;;;;;;;-144.47;100.00;61586.06;4953902;29;20060;-77
2022/10/25 11:00:04;;;;;;;;;;;;;;;-144.47;100.00;61586.06;4954479;28;19924;-76
2022/10/25 11:02:39;;;;;;;;;;;;;;;-144.47;100.00;61586.06;4953586;28;19914;-76
2022/10/25 11:05:24;;;;;;;;;;;;;;;-144.47;100.00;61586.06;4951581;28;20045;-76
2022/10/25 11:07:54;;;;;;;;;;;;;;;-144.47;100.00;61586.06;4952787;28;20021;-77
2022/10/25 11:10:20;;;;;;;;;;;;;;;-144.47;100.00;61586.06;4953480;28;19918;-79
2022/10/25 11:13:03;;;;;;;;;;;;;;;-144.47;100.00;61586.06;4953613;29;19973;-75
2022/10/25 11:15:32;;;;;;;;;;;;;;;-144.47;100.00;61586.06;4954037;28;20413;-77
2022/10/25 11:18:03;;;;;;;;;;;;;;;-144.47;100.00;61586.06;4954631;28;20006;-77
2022/10/25 11:20:33;;;;;;;;;;;;;;;-144.47;100.00;61586.06;4953035;28;20290;-75
2022/10/25 11:23:10;;;;;;;;;;;;;;;-144.47;100.00;61586.06;4953511;29;20294;-78
2022/10/25 11:25:44;;;;;;;;;;;;;;;-144.47;100.00;61586.06;4952262;29;20036;-78
2022/10/25 11:28:28;;;;;;;;;;;;;;;-144.47;100.00;61586.06;4950361;28;19922;-77
2022/10/25 11:30:56;;;;;;;;;;;;;;;-144.47;100.00;61586.06;4952379;29;19988;-78
2022/10/25 11:33:22;;;;;;;;;;;;;;;-144.47;100.00;61586.06;4934306;29;20020;-79
2022/10/25 11:36:00;;;;;;;;;;;;;;;-144.47;100.00;61586.06;4952885;29;20024;-77
2022/10/25 11:38:34;;;;;;;;;;;;;;;-144.47;100.00;61586.06;4951445;28;19927;-77
2022/10/25 11:41:15;;;;;;;;;;;;;;;-144.47;100.00;61586.06;4953954;28;19937;-77
2022/10/25 11:43:59;;;;;;;;;;;;;;;-144.47;100.00;61586.06;4951542;28;20286;-76
2022/10/25 11:46:37;;;;;;;;;;;;;;;-144.47;100.00;61586.06;4953110;28;19918;-76
2022/10/25 11:49:21;;;;;;;;;;;;;;;-144.47;100.00;61586.06;4951796;29;20013;-78
2022/10/25 11:52:01;;;;;;;;;;;;;;;-144.47;100.00;61586.06;4953048;29;20533;-75
2022/10/25 11:54:39;;;;;;;;;;;;;;;-144.47;100.00;61586.06;4935103;29;19926;-77
2022/10/25 11:57:13;;;;;;;;;;;;;;;-144.47;100.00;61586.06;4951993;29;19919;-80
2022/10/25 11:59:41;;;;;;;;;;;;;;;-144.47;100.00;61586.06;4950295;29;19973;-77
2022/10/25 12:02:33;;;;;;;;;;;;;;;-144.47;100.00;61586.06;4953569;29;20021;-76
2022/10/25 12:05:15;;;;;;;;;;;;;;;-144.47;100.00;61586.06;4945642;28;19973;-78
2022/10/25 12:07:49;;;;;;;;;;;;;;;-144.47;100.00;61586.06;4952400;29;20397;-77
2022/10/25 12:10:21;;;;;;;;;;;;;;;-144.47;100.00;61586.06;4952937;28;19987;-78
2022/10/25 12:12:49;;;;;;;;;;;;;;;-144.47;100.00;61586.06;4951257;29;20434;-78
2022/10/25 12:15:34;;;;;;;;;;;;;;;-144.47;100.00;61586.06;4952370;29;19919;-77
2022/10/25 12:18:00;;;;;;;;;;;;;;;-144.47;100.00;61586.06;4952077;29;19926;-76
2022/10/25 12:20:27;;;;;;;;;;;;;;;-144.47;100.00;61586.06;4951647;29;19981;-76
2022/10/25 12:22:55;;;;;;;;;;;;;;;-144.47;100.00;61586.06;4951880;29;19945;-76
2022/10/25 12:25:28;;;;;;;;;;;;;;;-144.47;100.00;61586.06;4951611;29;20330;-78